sensor_id;sensor_type;location;lat;lon;timestamp;P1;durP1;ratioP1;P2;durP2;ratioP2
80569;SDS011;69923;50.828;4.400;2023-05-10T00:01:00;11.65;;;4.88;;
80569;SDS011;69923;50.828;4.400;2023-05-10T00:03:26;12.52;;;4.80;;
80569;SDS011;69923;50.828;4.400;2023-05-10T00:05:52;10.13;;;4.93;;
80569;SDS011;69923;50.828;4.400;2023-05-10T00:08:18;11.35;;;5.28;;
80569;SDS011;69923;50.828;4.400;2023-05-10T00:10:44;11.23;;;6.05;;
80569;SDS011;69923;50.828;4.400;2023-05-10T00:13:10;12.48;;;4.78;;
80569;SDS011;69923;50.828;4.400;2023-05-10T00:15:36;10.18;;;5.00;;
80569;SDS011;69923;50.828;4.400;2023-05-10T00:18:03;9.77;;;5.07;;
80569;SDS011;69923;50.828;4.400;2023-05-10T00:20:29;10.23;;;4.97;;
80569;SDS011;69923;50.828;4.400;2023-05-10T00:22:55;8.57;;;4.20;;
80569;SDS011;69923;50.828;4.400;2023-05-10T00:25:21;12.07;;;5.57;;
80569;SDS011;69923;50.828;4.400;2023-05-10T00:27:47;11.20;;;5.25;;
80569;SDS011;69923;50.828;4.400;2023-05-10T00:30:14;11.45;;;5.70;;
80569;SDS011;69923;50.828;4.400;2023-05-10T00:32:40;9.15;;;5.22;;
80569;SDS011;69923;50.828;4.400;2023-05-10T00:35:08;11.93;;;5.18;;
80569;SDS011;69923;50.828;4.400;2023-05-10T00:37:34;11.40;;;5.28;;
80569;SDS011;69923;50.828;4.400;2023-05-10T00:40:00;8.48;;;4.70;;
80569;SDS011;69923;50.828;4.400;2023-05-10T00:42:27;12.05;;;6.03;;
80569;SDS011;69923;50.828;4.400;2023-05-10T00:44:53;9.90;;;5.05;;
80569;SDS011;69923;50.828;4.400;2023-05-10T00:47:19;12.18;;;5.78;;
80569;SDS011;69923;50.828;4.400;2023-05-10T00:49:46;13.88;;;6.32;;
80569;SDS011;69923;50.828;4.400;2023-05-10T00:52:13;10.45;;;5.00;;
80569;SDS011;69923;50.828;4.400;2023-05-10T00:54:39;9.30;;;5.15;;
80569;SDS011;69923;50.828;4.400;2023-05-10T00:57:05;12.20;;;6.03;;
80569;SDS011;69923;50.828;4.400;2023-05-10T00:59:31;13.48;;;6.18;;
80569;SDS011;69923;50.828;4.400;2023-05-10T01:01:58;9.40;;;5.15;;
80569;SDS011;69923;50.828;4.400;2023-05-10T01:04:24;13.43;;;6.05;;
80569;SDS011;69923;50.828;4.400;2023-05-10T01:06:51;13.07;;;5.75;;
80569;SDS011;69923;50.828;4.400;2023-05-10T01:09:19;11.00;;;5.63;;
80569;SDS011;69923;50.828;4.400;2023-05-10T01:11:46;13.05;;;5.97;;
80569;SDS011;69923;50.828;4.400;2023-05-10T01:14:13;12.45;;;6.88;;
80569;SDS011;69923;50.828;4.400;2023-05-10T01:16:42;11.00;;;6.72;;
80569;SDS011;69923;50.828;4.400;2023-05-10T01:36:09;12.35;;;6.00;;
80569;SDS011;69923;50.828;4.400;2023-05-10T01:38:49;10.40;;;5.47;;
80569;SDS011;69923;50.828;4.400;2023-05-10T01:41:39;12.50;;;6.38;;
80569;SDS011;69923;50.828;4.400;2023-05-10T01:44:24;10.23;;;5.65;;
80569;SDS011;69923;50.828;4.400;2023-05-10T01:47:05;14.75;;;6.80;;
80569;SDS011;69923;50.828;4.400;2023-05-10T01:49:37;13.30;;;6.07;;
80569;SDS011;69923;50.828;4.400;2023-05-10T01:52:15;11.13;;;6.10;;
80569;SDS011;69923;50.828;4.400;2023-05-10T01:54:55;14.65;;;6.22;;
80569;SDS011;69923;50.828;4.400;2023-05-10T01:57:27;11.60;;;5.68;;
80569;SDS011;69923;50.828;4.400;2023-05-10T01:59:58;11.88;;;7.47;;
80569;SDS011;69923;50.828;4.400;2023-05-10T02:02:26;13.82;;;6.78;;
80569;SDS011;69923;50.828;4.400;2023-05-10T02:04:54;15.15;;;6.18;;
80569;SDS011;69923;50.828;4.400;2023-05-10T02:07:22;14.20;;;7.18;;
80569;SDS011;69923;50.828;4.400;2023-05-10T02:09:49;12.68;;;6.63;;
80569;SDS011;69923;50.828;4.400;2023-05-10T02:12:16;13.65;;;6.45;;
80569;SDS011;69923;50.828;4.400;2023-05-10T02:14:43;13.23;;;6.95;;
80569;SDS011;69923;50.828;4.400;2023-05-10T02:17:12;11.93;;;6.47;;
80569;SDS011;69923;50.828;4.400;2023-05-10T02:19:40;11.43;;;5.72;;
80569;SDS011;69923;50.828;4.400;2023-05-10T02:22:08;14.30;;;6.53;;
80569;SDS011;69923;50.828;4.400;2023-05-10T02:24:35;11.52;;;5.93;;
80569;SDS011;69923;50.828;4.400;2023-05-10T02:27:03;12.90;;;6.57;;
80569;SDS011;69923;50.828;4.400;2023-05-10T02:29:31;10.95;;;6.35;;
80569;SDS011;69923;50.828;4.400;2023-05-10T02:31:59;11.63;;;5.00;;
80569;SDS011;69923;50.828;4.400;2023-05-10T02:34:26;10.20;;;5.60;;
80569;SDS011;69923;50.828;4.400;2023-05-10T02:36:54;10.48;;;4.95;;
80569;SDS011;69923;50.828;4.400;2023-05-10T02:39:21;14.32;;;6.28;;
80569;SDS011;69923;50.828;4.400;2023-05-10T02:41:49;11.52;;;5.95;;
80569;SDS011;69923;50.828;4.400;2023-05-10T02:44:17;12.35;;;6.05;;
80569;SDS011;69923;50.828;4.400;2023-05-10T02:46:45;12.70;;;5.80;;
80569;SDS011;69923;50.828;4.400;2023-05-10T02:49:11;12.63;;;5.70;;
80569;SDS011;69923;50.828;4.400;2023-05-10T02:51:40;9.45;;;5.47;;
80569;SDS011;69923;50.828;4.400;2023-05-10T02:54:13;11.45;;;5.35;;
80569;SDS011;69923;50.828;4.400;2023-05-10T02:56:47;11.13;;;5.78;;
80569;SDS011;69923;50.828;4.400;2023-05-10T02:59:16;12.88;;;5.65;;
80569;SDS011;69923;50.828;4.400;2023-05-10T03:01:42;12.35;;;5.28;;
80569;SDS011;69923;50.828;4.400;2023-05-10T03:04:08;11.70;;;5.20;;
80569;SDS011;69923;50.828;4.400;2023-05-10T03:06:35;13.45;;;6.43;;
80569;SDS011;69923;50.828;4.400;2023-05-10T03:09:01;9.77;;;4.75;;
80569;SDS011;69923;50.828;4.400;2023-05-10T03:16:54;12.65;;;5.70;;
80569;SDS011;69923;50.828;4.400;2023-05-10T03:19:32;14.68;;;5.50;;
80569;SDS011;69923;50.828;4.400;2023-05-10T03:22:03;19.88;;;7.00;;
80569;SDS011;69923;50.828;4.400;2023-05-10T03:24:33;13.25;;;5.45;;
80569;SDS011;69923;50.828;4.400;2023-05-10T03:27:01;11.63;;;5.80;;
80569;SDS011;69923;50.828;4.400;2023-05-10T03:29:29;10.88;;;4.93;;
80569;SDS011;69923;50.828;4.400;2023-05-10T03:31:57;11.65;;;5.20;;
80569;SDS011;69923;50.828;4.400;2023-05-10T03:34:27;13.60;;;6.20;;
80569;SDS011;69923;50.828;4.400;2023-05-10T03:36:56;14.23;;;6.13;;
80569;SDS011;69923;50.828;4.400;2023-05-10T03:39:22;13.30;;;6.32;;
80569;SDS011;69923;50.828;4.400;2023-05-10T03:41:49;13.63;;;6.07;;
80569;SDS011;69923;50.828;4.400;2023-05-10T03:44:16;11.70;;;5.25;;
80569;SDS011;69923;50.828;4.400;2023-05-10T03:46:42;14.38;;;6.38;;
80569;SDS011;69923;50.828;4.400;2023-05-10T03:49:08;12.38;;;5.75;;
80569;SDS011;69923;50.828;4.400;2023-05-10T03:51:34;13.93;;;6.68;;
80569;SDS011;69923;50.828;4.400;2023-05-10T03:54:00;13.15;;;7.00;;
80569;SDS011;69923;50.828;4.400;2023-05-10T03:56:27;14.75;;;7.55;;
80569;SDS011;69923;50.828;4.400;2023-05-10T03:58:53;17.08;;;7.57;;
80569;SDS011;69923;50.828;4.400;2023-05-10T04:01:19;12.75;;;6.20;;
80569;SDS011;69923;50.828;4.400;2023-05-10T04:03:45;12.40;;;6.75;;
80569;SDS011;69923;50.828;4.400;2023-05-10T04:06:11;13.18;;;6.88;;
80569;SDS011;69923;50.828;4.400;2023-05-10T04:08:37;15.07;;;6.70;;
80569;SDS011;69923;50.828;4.400;2023-05-10T04:11:10;15.65;;;7.50;;
80569;SDS011;69923;50.828;4.400;2023-05-10T04:13:37;15.45;;;7.15;;
80569;SDS011;69923;50.828;4.400;2023-05-10T04:16:04;14.88;;;6.75;;
80569;SDS011;69923;50.828;4.400;2023-05-10T04:18:30;15.82;;;7.05;;
80569;SDS011;69923;50.828;4.400;2023-05-10T04:20:57;16.75;;;7.50;;
80569;SDS011;69923;50.828;4.400;2023-05-10T04:23:23;16.95;;;7.70;;
80569;SDS011;69923;50.828;4.400;2023-05-10T04:25:49;17.73;;;7.93;;
80569;SDS011;69923;50.828;4.400;2023-05-10T04:28:15;22.33;;;9.45;;
80569;SDS011;69923;50.828;4.400;2023-05-10T04:30:41;19.70;;;9.10;;
80569;SDS011;69923;50.828;4.400;2023-05-10T04:33:07;15.27;;;6.97;;
80569;SDS011;69923;50.828;4.400;2023-05-10T04:35:34;18.33;;;8.35;;
80569;SDS011;69923;50.828;4.400;2023-05-10T04:38:00;17.40;;;7.65;;
80569;SDS011;69923;50.828;4.400;2023-05-10T04:40:26;18.65;;;8.00;;
80569;SDS011;69923;50.828;4.400;2023-05-10T04:42:52;19.10;;;8.85;;
80569;SDS011;69923;50.828;4.400;2023-05-10T04:45:19;14.05;;;7.63;;
80569;SDS011;69923;50.828;4.400;2023-05-10T04:47:45;16.60;;;8.23;;
80569;SDS011;69923;50.828;4.400;2023-05-10T04:50:11;18.42;;;9.18;;
80569;SDS011;69923;50.828;4.400;2023-05-10T04:52:37;17.77;;;8.60;;
80569;SDS011;69923;50.828;4.400;2023-05-10T04:55:04;20.15;;;9.32;;
80569;SDS011;69923;50.828;4.400;2023-05-10T04:57:32;19.33;;;9.30;;
80569;SDS011;69923;50.828;4.400;2023-05-10T04:59:59;19.75;;;9.13;;
80569;SDS011;69923;50.828;4.400;2023-05-10T05:02:25;20.40;;;9.85;;
80569;SDS011;69923;50.828;4.400;2023-05-10T05:04:51;17.63;;;9.65;;
80569;SDS011;69923;50.828;4.400;2023-05-10T05:07:17;16.02;;;8.10;;
80569;SDS011;69923;50.828;4.400;2023-05-10T05:09:43;19.17;;;9.25;;
80569;SDS011;69923;50.828;4.400;2023-05-10T05:12:10;17.02;;;8.93;;
80569;SDS011;69923;50.828;4.400;2023-05-10T05:14:39;19.15;;;9.27;;
80569;SDS011;69923;50.828;4.400;2023-05-10T05:17:06;14.68;;;8.02;;
80569;SDS011;69923;50.828;4.400;2023-05-10T05:19:32;14.80;;;7.30;;
80569;SDS011;69923;50.828;4.400;2023-05-10T05:21:58;14.18;;;7.32;;
80569;SDS011;69923;50.828;4.400;2023-05-10T05:24:24;13.30;;;5.63;;
80569;SDS011;69923;50.828;4.400;2023-05-10T05:26:51;11.15;;;5.45;;
80569;SDS011;69923;50.828;4.400;2023-05-10T05:29:17;12.98;;;5.93;;
80569;SDS011;69923;50.828;4.400;2023-05-10T05:31:43;8.93;;;4.97;;
80569;SDS011;69923;50.828;4.400;2023-05-10T05:34:09;14.38;;;5.32;;
80569;SDS011;69923;50.828;4.400;2023-05-10T05:36:36;9.55;;;4.70;;
80569;SDS011;69923;50.828;4.400;2023-05-10T05:39:05;11.15;;;4.88;;
80569;SDS011;69923;50.828;4.400;2023-05-10T05:41:31;11.00;;;5.75;;
80569;SDS011;69923;50.828;4.400;2023-05-10T05:43:57;10.90;;;5.22;;
80569;SDS011;69923;50.828;4.400;2023-05-10T05:46:23;13.55;;;6.38;;
80569;SDS011;69923;50.828;4.400;2023-05-10T05:48:49;14.10;;;6.05;;
80569;SDS011;69923;50.828;4.400;2023-05-10T05:51:16;16.77;;;6.63;;
80569;SDS011;69923;50.828;4.400;2023-05-10T05:53:42;12.02;;;6.18;;
80569;SDS011;69923;50.828;4.400;2023-05-10T05:56:08;11.50;;;6.00;;
80569;SDS011;69923;50.828;4.400;2023-05-10T05:58:34;12.80;;;5.97;;
80569;SDS011;69923;50.828;4.400;2023-05-10T06:01:00;10.15;;;5.00;;
80569;SDS011;69923;50.828;4.400;2023-05-10T06:03:26;13.52;;;6.10;;
80569;SDS011;69923;50.828;4.400;2023-05-10T06:05:53;13.65;;;5.82;;
80569;SDS011;69923;50.828;4.400;2023-05-10T06:08:19;9.70;;;4.60;;
80569;SDS011;69923;50.828;4.400;2023-05-10T06:10:45;9.52;;;4.93;;
80569;SDS011;69923;50.828;4.400;2023-05-10T06:13:11;9.77;;;4.43;;
80569;SDS011;69923;50.828;4.400;2023-05-10T06:15:38;12.57;;;5.72;;
80569;SDS011;69923;50.828;4.400;2023-05-10T06:18:04;10.32;;;4.80;;
80569;SDS011;69923;50.828;4.400;2023-05-10T06:20:31;7.47;;;4.95;;
80569;SDS011;69923;50.828;4.400;2023-05-10T06:22:57;11.15;;;3.97;;
80569;SDS011;69923;50.828;4.400;2023-05-10T06:25:24;10.05;;;4.00;;
80569;SDS011;69923;50.828;4.400;2023-05-10T06:27:50;8.50;;;4.25;;
80569;SDS011;69923;50.828;4.400;2023-05-10T06:30:21;9.88;;;4.60;;
80569;SDS011;69923;50.828;4.400;2023-05-10T06:32:52;9.35;;;3.38;;
80569;SDS011;69923;50.828;4.400;2023-05-10T06:35:18;6.57;;;3.35;;
80569;SDS011;69923;50.828;4.400;2023-05-10T06:37:44;6.35;;;3.00;;
80569;SDS011;69923;50.828;4.400;2023-05-10T06:40:11;6.38;;;3.15;;
80569;SDS011;69923;50.828;4.400;2023-05-10T06:42:38;8.75;;;3.33;;
80569;SDS011;69923;50.828;4.400;2023-05-10T06:45:04;6.55;;;3.03;;
80569;SDS011;69923;50.828;4.400;2023-05-10T06:47:30;8.20;;;2.97;;
80569;SDS011;69923;50.828;4.400;2023-05-10T06:49:57;6.53;;;2.83;;
80569;SDS011;69923;50.828;4.400;2023-05-10T06:52:23;4.60;;;2.40;;
80569;SDS011;69923;50.828;4.400;2023-05-10T06:54:49;6.78;;;2.85;;
80569;SDS011;69923;50.828;4.400;2023-05-10T06:57:15;5.97;;;2.78;;
80569;SDS011;69923;50.828;4.400;2023-05-10T06:59:42;6.68;;;3.00;;
80569;SDS011;69923;50.828;4.400;2023-05-10T07:02:08;6.60;;;2.78;;
80569;SDS011;69923;50.828;4.400;2023-05-10T07:04:35;7.75;;;3.65;;
80569;SDS011;69923;50.828;4.400;2023-05-10T07:07:01;7.60;;;2.97;;
80569;SDS011;69923;50.828;4.400;2023-05-10T07:09:27;7.47;;;2.85;;
80569;SDS011;69923;50.828;4.400;2023-05-10T07:11:53;6.35;;;3.17;;
80569;SDS011;69923;50.828;4.400;2023-05-10T07:14:20;7.93;;;3.45;;
80569;SDS011;69923;50.828;4.400;2023-05-10T07:16:46;6.65;;;3.72;;
80569;SDS011;69923;50.828;4.400;2023-05-10T07:19:12;6.53;;;3.33;;
80569;SDS011;69923;50.828;4.400;2023-05-10T07:21:38;9.93;;;3.95;;
80569;SDS011;69923;50.828;4.400;2023-05-10T07:24:07;9.75;;;3.80;;
80569;SDS011;69923;50.828;4.400;2023-05-10T07:26:33;9.15;;;4.28;;
80569;SDS011;69923;50.828;4.400;2023-05-10T07:28:59;9.23;;;4.40;;
80569;SDS011;69923;50.828;4.400;2023-05-10T07:31:26;9.20;;;3.92;;
80569;SDS011;69923;50.828;4.400;2023-05-10T07:33:52;6.30;;;3.58;;
80569;SDS011;69923;50.828;4.400;2023-05-10T07:36:18;8.23;;;4.38;;
80569;SDS011;69923;50.828;4.400;2023-05-10T07:38:44;9.98;;;4.38;;
80569;SDS011;69923;50.828;4.400;2023-05-10T07:41:11;13.88;;;5.35;;
80569;SDS011;69923;50.828;4.400;2023-05-10T07:43:37;9.25;;;4.72;;
80569;SDS011;69923;50.828;4.400;2023-05-10T07:46:04;10.30;;;4.38;;
80569;SDS011;69923;50.828;4.400;2023-05-10T07:48:31;11.48;;;4.75;;
80569;SDS011;69923;50.828;4.400;2023-05-10T07:50:57;12.18;;;4.55;;
80569;SDS011;69923;50.828;4.400;2023-05-10T07:53:23;9.45;;;4.68;;
80569;SDS011;69923;50.828;4.400;2023-05-10T07:55:51;11.48;;;4.85;;
80569;SDS011;69923;50.828;4.400;2023-05-10T07:58:19;10.43;;;4.85;;
80569;SDS011;69923;50.828;4.400;2023-05-10T08:00:45;10.38;;;4.60;;
80569;SDS011;69923;50.828;4.400;2023-05-10T08:03:11;7.45;;;3.67;;
80569;SDS011;69923;50.828;4.400;2023-05-10T08:05:37;8.25;;;3.90;;
80569;SDS011;69923;50.828;4.400;2023-05-10T08:08:04;8.45;;;3.83;;
80569;SDS011;69923;50.828;4.400;2023-05-10T08:10:30;7.65;;;3.53;;
80569;SDS011;69923;50.828;4.400;2023-05-10T08:12:56;7.72;;;3.30;;
80569;SDS011;69923;50.828;4.400;2023-05-10T08:15:23;11.98;;;4.13;;
80569;SDS011;69923;50.828;4.400;2023-05-10T08:17:51;10.82;;;3.85;;
80569;SDS011;69923;50.828;4.400;2023-05-10T08:20:17;8.40;;;3.80;;
80569;SDS011;69923;50.828;4.400;2023-05-10T08:22:47;9.63;;;4.25;;
80569;SDS011;69923;50.828;4.400;2023-05-10T08:25:13;7.95;;;3.50;;
80569;SDS011;69923;50.828;4.400;2023-05-10T08:27:39;7.65;;;3.83;;
80569;SDS011;69923;50.828;4.400;2023-05-10T08:30:05;6.90;;;3.30;;
80569;SDS011;69923;50.828;4.400;2023-05-10T08:32:32;8.60;;;3.22;;
80569;SDS011;69923;50.828;4.400;2023-05-10T08:34:59;8.57;;;3.70;;
80569;SDS011;69923;50.828;4.400;2023-05-10T08:37:26;6.68;;;3.22;;
80569;SDS011;69923;50.828;4.400;2023-05-10T08:39:55;6.35;;;3.05;;
80569;SDS011;69923;50.828;4.400;2023-05-10T08:42:21;4.97;;;2.58;;
80569;SDS011;69923;50.828;4.400;2023-05-10T08:47:19;6.47;;;2.95;;
80569;SDS011;69923;50.828;4.400;2023-05-10T08:49:47;5.35;;;3.10;;
80569;SDS011;69923;50.828;4.400;2023-05-10T08:52:16;10.85;;;3.53;;
80569;SDS011;69923;50.828;4.400;2023-05-10T08:54:43;6.97;;;2.75;;
80569;SDS011;69923;50.828;4.400;2023-05-10T08:57:10;9.43;;;3.53;;
80569;SDS011;69923;50.828;4.400;2023-05-10T08:59:36;10.02;;;3.10;;
80569;SDS011;69923;50.828;4.400;2023-05-10T09:02:04;7.95;;;3.35;;
80569;SDS011;69923;50.828;4.400;2023-05-10T09:04:31;5.82;;;2.80;;
80569;SDS011;69923;50.828;4.400;2023-05-10T09:06:57;5.53;;;2.92;;
80569;SDS011;69923;50.828;4.400;2023-05-10T09:09:24;9.35;;;3.40;;
80569;SDS011;69923;50.828;4.400;2023-05-10T09:11:52;6.95;;;3.38;;
80569;SDS011;69923;50.828;4.400;2023-05-10T09:14:19;8.95;;;3.88;;
80569;SDS011;69923;50.828;4.400;2023-05-10T09:16:46;9.15;;;4.53;;
80569;SDS011;69923;50.828;4.400;2023-05-10T09:19:12;6.53;;;3.15;;
80569;SDS011;69923;50.828;4.400;2023-05-10T09:21:38;8.50;;;3.83;;
80569;SDS011;69923;50.828;4.400;2023-05-10T09:24:05;8.18;;;3.42;;
80569;SDS011;69923;50.828;4.400;2023-05-10T09:26:32;7.13;;;3.60;;
80569;SDS011;69923;50.828;4.400;2023-05-10T09:29:00;8.85;;;3.58;;
80569;SDS011;69923;50.828;4.400;2023-05-10T09:31:47;9.13;;;3.72;;
80569;SDS011;69923;50.828;4.400;2023-05-10T09:34:17;7.75;;;3.67;;
80569;SDS011;69923;50.828;4.400;2023-05-10T09:36:59;7.65;;;3.38;;
80569;SDS011;69923;50.828;4.400;2023-05-10T09:39:29;6.03;;;3.03;;
80569;SDS011;69923;50.828;4.400;2023-05-10T09:41:57;7.38;;;3.08;;
80569;SDS011;69923;50.828;4.400;2023-05-10T09:44:28;5.70;;;3.00;;
80569;SDS011;69923;50.828;4.400;2023-05-10T09:46:55;9.57;;;3.40;;
80569;SDS011;69923;50.828;4.400;2023-05-10T09:49:22;5.43;;;2.80;;
80569;SDS011;69923;50.828;4.400;2023-05-10T09:51:59;5.28;;;2.60;;
80569;SDS011;69923;50.828;4.400;2023-05-10T09:54:29;5.63;;;2.60;;
80569;SDS011;69923;50.828;4.400;2023-05-10T09:56:55;6.72;;;3.00;;
80569;SDS011;69923;50.828;4.400;2023-05-10T09:59:22;5.75;;;2.70;;
80569;SDS011;69923;50.828;4.400;2023-05-10T10:01:52;6.35;;;2.67;;
80569;SDS011;69923;50.828;4.400;2023-05-10T10:04:23;5.35;;;2.60;;
80569;SDS011;69923;50.828;4.400;2023-05-10T10:07:02;4.38;;;2.45;;
80569;SDS011;69923;50.828;4.400;2023-05-10T10:09:29;6.20;;;3.20;;
80569;SDS011;69923;50.828;4.400;2023-05-10T10:11:55;5.65;;;2.65;;
80569;SDS011;69923;50.828;4.400;2023-05-10T10:14:23;7.18;;;2.90;;
80569;SDS011;69923;50.828;4.400;2023-05-10T10:16:49;5.00;;;2.53;;
80569;SDS011;69923;50.828;4.400;2023-05-10T10:19:19;5.32;;;2.97;;
80569;SDS011;69923;50.828;4.400;2023-05-10T10:21:46;7.13;;;3.00;;
80569;SDS011;69923;50.828;4.400;2023-05-10T10:24:13;6.38;;;2.95;;
80569;SDS011;69923;50.828;4.400;2023-05-10T10:26:40;6.43;;;2.92;;
80569;SDS011;69923;50.828;4.400;2023-05-10T10:32:12;5.10;;;2.63;;
80569;SDS011;69923;50.828;4.400;2023-05-10T10:34:53;4.97;;;2.70;;
80569;SDS011;69923;50.828;4.400;2023-05-10T10:37:21;6.32;;;3.05;;
80569;SDS011;69923;50.828;4.400;2023-05-10T10:39:50;7.65;;;2.90;;
80569;SDS011;69923;50.828;4.400;2023-05-10T10:42:43;5.90;;;3.05;;
80569;SDS011;69923;50.828;4.400;2023-05-10T10:45:11;4.30;;;2.60;;
80569;SDS011;69923;50.828;4.400;2023-05-10T10:47:37;6.05;;;2.90;;
80569;SDS011;69923;50.828;4.400;2023-05-10T10:50:04;5.10;;;2.50;;
80569;SDS011;69923;50.828;4.400;2023-05-10T10:52:36;6.35;;;2.45;;
80569;SDS011;69923;50.828;4.400;2023-05-10T10:55:19;5.18;;;3.08;;
80569;SDS011;69923;50.828;4.400;2023-05-10T10:57:51;7.65;;;3.03;;
80569;SDS011;69923;50.828;4.400;2023-05-10T11:08:27;5.38;;;2.88;;
80569;SDS011;69923;50.828;4.400;2023-05-10T11:16:28;5.45;;;2.72;;
80569;SDS011;69923;50.828;4.400;2023-05-10T11:19:12;6.07;;;2.83;;
80569;SDS011;69923;50.828;4.400;2023-05-10T11:21:52;8.20;;;3.95;;
80569;SDS011;69923;50.828;4.400;2023-05-10T11:24:38;6.28;;;3.22;;
80569;SDS011;69923;50.828;4.400;2023-05-10T11:27:05;5.03;;;2.80;;
80569;SDS011;69923;50.828;4.400;2023-05-10T11:29:31;5.65;;;3.40;;
80569;SDS011;69923;50.828;4.400;2023-05-10T11:31:58;6.82;;;3.42;;
80569;SDS011;69923;50.828;4.400;2023-05-10T11:34:25;6.07;;;3.13;;
80569;SDS011;69923;50.828;4.400;2023-05-10T11:36:58;5.82;;;2.70;;
80569;SDS011;69923;50.828;4.400;2023-05-10T11:39:28;4.78;;;2.63;;
80569;SDS011;69923;50.828;4.400;2023-05-10T11:41:56;5.32;;;3.15;;
80569;SDS011;69923;50.828;4.400;2023-05-10T11:44:23;6.13;;;3.17;;
80569;SDS011;69923;50.828;4.400;2023-05-10T11:46:58;6.22;;;2.88;;
80569;SDS011;69923;50.828;4.400;2023-05-10T11:49:25;6.85;;;3.60;;
80569;SDS011;69923;50.828;4.400;2023-05-10T11:51:52;5.38;;;2.50;;
80569;SDS011;69923;50.828;4.400;2023-05-10T11:54:18;5.32;;;2.85;;
80569;SDS011;69923;50.828;4.400;2023-05-10T11:56:44;5.72;;;3.00;;
80569;SDS011;69923;50.828;4.400;2023-05-10T11:59:10;4.57;;;2.75;;
80569;SDS011;69923;50.828;4.400;2023-05-10T12:01:40;5.20;;;2.88;;
80569;SDS011;69923;50.828;4.400;2023-05-10T12:04:06;6.35;;;2.85;;
80569;SDS011;69923;50.828;4.400;2023-05-10T12:06:34;7.20;;;3.08;;
80569;SDS011;69923;50.828;4.400;2023-05-10T12:09:05;5.22;;;3.22;;
80569;SDS011;69923;50.828;4.400;2023-05-10T12:11:35;4.85;;;2.42;;
80569;SDS011;69923;50.828;4.400;2023-05-10T12:14:04;7.55;;;3.90;;
80569;SDS011;69923;50.828;4.400;2023-05-10T12:16:31;5.82;;;3.30;;
80569;SDS011;69923;50.828;4.400;2023-05-10T12:18:58;5.38;;;2.80;;
80569;SDS011;69923;50.828;4.400;2023-05-10T12:21:25;7.47;;;3.35;;
80569;SDS011;69923;50.828;4.400;2023-05-10T12:23:53;6.25;;;3.13;;
80569;SDS011;69923;50.828;4.400;2023-05-10T12:26:24;8.85;;;3.85;;
80569;SDS011;69923;50.828;4.400;2023-05-10T12:28:54;6.30;;;3.40;;
80569;SDS011;69923;50.828;4.400;2023-05-10T12:31:48;7.50;;;3.53;;
80569;SDS011;69923;50.828;4.400;2023-05-10T12:36:54;5.45;;;2.78;;
80569;SDS011;69923;50.828;4.400;2023-05-10T12:39:20;7.60;;;3.17;;
80569;SDS011;69923;50.828;4.400;2023-05-10T12:41:46;5.72;;;3.42;;
80569;SDS011;69923;50.828;4.400;2023-05-10T12:44:12;6.90;;;3.50;;
80569;SDS011;69923;50.828;4.400;2023-05-10T12:46:39;6.97;;;3.50;;
80569;SDS011;69923;50.828;4.400;2023-05-10T12:49:05;7.00;;;3.67;;
80569;SDS011;69923;50.828;4.400;2023-05-10T12:51:31;7.22;;;3.40;;
80569;SDS011;69923;50.828;4.400;2023-05-10T12:53:57;12.55;;;5.32;;
80569;SDS011;69923;50.828;4.400;2023-05-10T12:56:23;7.38;;;3.80;;
80569;SDS011;69923;50.828;4.400;2023-05-10T12:58:49;8.20;;;3.65;;
80569;SDS011;69923;50.828;4.400;2023-05-10T13:01:16;6.60;;;3.95;;
80569;SDS011;69923;50.828;4.400;2023-05-10T13:03:42;6.18;;;3.63;;
80569;SDS011;69923;50.828;4.400;2023-05-10T13:06:08;7.28;;;3.28;;
80569;SDS011;69923;50.828;4.400;2023-05-10T13:08:35;6.47;;;3.40;;
80569;SDS011;69923;50.828;4.400;2023-05-10T13:11:01;5.82;;;2.80;;
80569;SDS011;69923;50.828;4.400;2023-05-10T13:13:28;7.75;;;3.92;;
80569;SDS011;69923;50.828;4.400;2023-05-10T13:15:54;6.68;;;3.30;;
80569;SDS011;69923;50.828;4.400;2023-05-10T13:18:21;5.28;;;2.85;;
80569;SDS011;69923;50.828;4.400;2023-05-10T13:20:47;5.03;;;3.03;;
80569;SDS011;69923;50.828;4.400;2023-05-10T13:23:14;6.07;;;3.10;;
80569;SDS011;69923;50.828;4.400;2023-05-10T13:25:40;5.22;;;3.08;;
80569;SDS011;69923;50.828;4.400;2023-05-10T13:28:06;4.50;;;2.20;;
80569;SDS011;69923;50.828;4.400;2023-05-10T13:30:32;6.32;;;2.53;;
80569;SDS011;69923;50.828;4.400;2023-05-10T13:32:59;4.70;;;2.70;;
80569;SDS011;69923;50.828;4.400;2023-05-10T13:35:25;6.13;;;2.22;;
80569;SDS011;69923;50.828;4.400;2023-05-10T13:37:51;4.68;;;2.38;;
80569;SDS011;69923;50.828;4.400;2023-05-10T13:40:18;4.25;;;2.25;;
80569;SDS011;69923;50.828;4.400;2023-05-10T13:42:44;9.10;;;3.97;;
80569;SDS011;69923;50.828;4.400;2023-05-10T13:45:11;5.95;;;3.55;;
80569;SDS011;69923;50.828;4.400;2023-05-10T13:47:38;10.43;;;4.32;;
80569;SDS011;69923;50.828;4.400;2023-05-10T13:50:04;6.57;;;3.40;;
80569;SDS011;69923;50.828;4.400;2023-05-10T13:52:31;8.13;;;3.72;;
80569;SDS011;69923;50.828;4.400;2023-05-10T13:54:57;7.25;;;4.13;;
80569;SDS011;69923;50.828;4.400;2023-05-10T13:57:23;5.72;;;3.25;;
80569;SDS011;69923;50.828;4.400;2023-05-10T13:59:49;7.35;;;3.42;;
80569;SDS011;69923;50.828;4.400;2023-05-10T14:02:16;7.18;;;3.67;;
80569;SDS011;69923;50.828;4.400;2023-05-10T14:04:42;8.60;;;4.30;;
80569;SDS011;69923;50.828;4.400;2023-05-10T14:07:08;7.88;;;4.55;;
80569;SDS011;69923;50.828;4.400;2023-05-10T14:09:35;11.10;;;5.22;;
80569;SDS011;69923;50.828;4.400;2023-05-10T14:12:01;8.30;;;4.78;;
80569;SDS011;69923;50.828;4.400;2023-05-10T14:14:27;8.70;;;4.88;;
80569;SDS011;69923;50.828;4.400;2023-05-10T14:16:54;8.73;;;4.15;;
80569;SDS011;69923;50.828;4.400;2023-05-10T14:19:20;9.30;;;5.40;;
80569;SDS011;69923;50.828;4.400;2023-05-10T14:21:46;10.52;;;5.03;;
80569;SDS011;69923;50.828;4.400;2023-05-10T14:24:12;8.85;;;5.00;;
80569;SDS011;69923;50.828;4.400;2023-05-10T14:26:39;10.35;;;4.95;;
80569;SDS011;69923;50.828;4.400;2023-05-10T14:29:05;11.82;;;5.78;;
80569;SDS011;69923;50.828;4.400;2023-05-10T14:31:31;10.05;;;5.35;;
80569;SDS011;69923;50.828;4.400;2023-05-10T14:33:57;12.63;;;5.93;;
80569;SDS011;69923;50.828;4.400;2023-05-10T14:36:24;12.88;;;6.57;;
80569;SDS011;69923;50.828;4.400;2023-05-10T14:38:50;11.73;;;6.55;;
80569;SDS011;69923;50.828;4.400;2023-05-10T14:41:17;12.73;;;6.97;;
80569;SDS011;69923;50.828;4.400;2023-05-10T14:43:43;11.32;;;5.68;;
80569;SDS011;69923;50.828;4.400;2023-05-10T14:46:09;9.05;;;5.30;;
80569;SDS011;69923;50.828;4.400;2023-05-10T14:48:36;9.38;;;4.95;;
80569;SDS011;69923;50.828;4.400;2023-05-10T14:51:02;8.18;;;4.63;;
80569;SDS011;69923;50.828;4.400;2023-05-10T14:53:28;10.65;;;5.90;;
80569;SDS011;69923;50.828;4.400;2023-05-10T14:55:55;13.52;;;6.03;;
80569;SDS011;69923;50.828;4.400;2023-05-10T14:58:21;10.63;;;5.72;;
80569;SDS011;69923;50.828;4.400;2023-05-10T15:00:47;13.80;;;6.50;;
80569;SDS011;69923;50.828;4.400;2023-05-10T15:03:13;10.73;;;6.13;;
80569;SDS011;69923;50.828;4.400;2023-05-10T15:05:40;16.50;;;7.10;;
80569;SDS011;69923;50.828;4.400;2023-05-10T15:08:06;14.93;;;5.80;;
80569;SDS011;69923;50.828;4.400;2023-05-10T15:10:32;12.18;;;6.45;;
80569;SDS011;69923;50.828;4.400;2023-05-10T15:12:59;8.77;;;5.32;;
80569;SDS011;69923;50.828;4.400;2023-05-10T15:15:25;9.70;;;4.95;;
80569;SDS011;69923;50.828;4.400;2023-05-10T15:17:51;7.78;;;4.20;;
80569;SDS011;69923;50.828;4.400;2023-05-10T15:20:18;8.38;;;3.85;;
80569;SDS011;69923;50.828;4.400;2023-05-10T15:22:44;8.30;;;3.63;;
80569;SDS011;69923;50.828;4.400;2023-05-10T15:25:10;5.97;;;2.92;;
80569;SDS011;69923;50.828;4.400;2023-05-10T15:27:36;8.23;;;3.25;;